Wetterdaten: Woche 13.10.08 - 19.10.08 (KW42)
Datum Zeit Temperatur Luftfeuchte Luftdruck Niederschlag Windrichtung Wind
13.10.2008 00:00 8,4 C 92 % 1025,7 hPa 0,0 l/m N 0,0 km/h (0 Bft)
13.10.2008 01:00 7,8 C 93 % 1025,3 hPa 0,0 l/m N 0,0 km/h (0 Bft)
13.10.2008 02:00 7,7 C 96 % 1025,4 hPa 0,0 l/m N 0,0 km/h (0 Bft)
13.10.2008 03:00 7,8 C 96 % 1025,2 hPa 0,0 l/m N 0,0 km/h (0 Bft)
13.10.2008 04:00 7,4 C 96 % 1024,9 hPa 0,0 l/m N 0,0 km/h (0 Bft)
13.10.2008 05:00 7,2 C 96 % 1024,3 hPa 0,0 l/m N 0,0 km/h (0 Bft)
13.10.2008 06:00 6,8 C 96 % 1023,9 hPa 0,0 l/m N 0,0 km/h (0 Bft)
13.10.2008 07:00 6,6 C 97 % 1023,6 hPa 0,0 l/m N 0,0 km/h (0 Bft)
13.10.2008 08:00 6,8 C 98 % 1023,6 hPa 0,0 l/m N 0,0 km/h (0 Bft)
13.10.2008 09:00 7,6 C 98 % 1023,6 hPa 0,0 l/m N 0,0 km/h (0 Bft)
13.10.2008 10:00 9,4 C 99 % 1023,7 hPa 0,0 l/m S-SW 3,1 km/h (1 Bft)
13.10.2008 11:00 12,8 C 88 % 1023,5 hPa 0,0 l/m S-SW 10,6 km/h (2 Bft)
13.10.2008 12:00 16,2 C 73 % 1022,9 hPa 0,0 l/m S-SW 13,3 km/h (3 Bft)
13.10.2008 13:00 18,1 C 68 % 1022,1 hPa 0,0 l/m S 13,4 km/h (3 Bft)
13.10.2008 14:00 19,1 C 65 % 1021,4 hPa 0,0 l/m SW 15,2 km/h (3 Bft)
13.10.2008 15:00 18,2 C 69 % 1020,9 hPa 0,0 l/m S-SW 16,0 km/h (3 Bft)
13.10.2008 16:00 17,1 C 71 % 1020,7 hPa 0,0 l/m S-SW 15,4 km/h (3 Bft)
13.10.2008 17:00 15,9 C 69 % 1020,6 hPa 0,0 l/m S-SW 11,7 km/h (2 Bft)
13.10.2008 18:00 15,1 C 73 % 1020,6 hPa 0,0 l/m S-SW 5,5 km/h (1 Bft)
13.10.2008 19:00 14,4 C 76 % 1020,8 hPa 0,0 l/m SO 2,4 km/h (1 Bft)
13.10.2008 20:00 13,6 C 80 % 1021,1 hPa 0,0 l/m O-SO 2,1 km/h (1 Bft)
13.10.2008 21:00 13,0 C 83 % 1021,4 hPa 0,0 l/m N 0,3 km/h (0 Bft)
13.10.2008 22:00 12,2 C 87 % 1021,7 hPa 0,0 l/m N 0,0 km/h (0 Bft)
13.10.2008 23:00 11,9 C 89 % 1021,9 hPa 0,0 l/m N 0,0 km/h (0 Bft)
14.10.2008 00:00 11,9 C 90 % 1021,8 hPa 0,0 l/m N 0,0 km/h (0 Bft)
14.10.2008 01:00 11,4 C 90 % 1021,7 hPa 0,0 l/m N 0,0 km/h (0 Bft)
14.10.2008 02:00 10,8 C 93 % 1021,6 hPa 0,0 l/m N 0,4 km/h (0 Bft)
14.10.2008 03:00 10,4 C 93 % 1021,3 hPa 0,0 l/m N 0,1 km/h (0 Bft)
14.10.2008 04:00 10,1 C 94 % 1021,0 hPa 0,0 l/m N 0,0 km/h (0 Bft)
14.10.2008 05:00 9,9 C 95 % 1020,9 hPa 0,0 l/m N 0,0 km/h (0 Bft)
14.10.2008 06:00 9,6 C 95 % 1021,0 hPa 0,0 l/m N 0,0 km/h (0 Bft)
14.10.2008 07:00 9,6 C 96 % 1021,0 hPa 0,0 l/m N 0,0 km/h (0 Bft)
14.10.2008 08:00 9,8 C 97 % 1021,2 hPa 0,0 l/m N 0,5 km/h (0 Bft)
14.10.2008 09:00 11,4 C 99 % 1021,5 hPa 0,0 l/m S-SW 5,2 km/h (1 Bft)
14.10.2008 10:00 13,5 C 96 % 1021,6 hPa 0,0 l/m SW 7,0 km/h (2 Bft)
14.10.2008 11:00 17,0 C 81 % 1021,4 hPa 0,0 l/m S-SO 10,5 km/h (2 Bft)
14.10.2008 12:00 18,2 C 78 % 1021,0 hPa 0,0 l/m S-SW 12,0 km/h (2 Bft)
14.10.2008 13:00 19,7 C 71 % 1020,2 hPa 0,0 l/m SW 16,9 km/h (3 Bft)
14.10.2008 14:00 20,6 C 64 % 1019,5 hPa 0,0 l/m W 17,3 km/h (3 Bft)
14.10.2008 15:00 20,3 C 64 % 1019,0 hPa 0,0 l/m W 15,3 km/h (3 Bft)
14.10.2008 16:00 20,0 C 65 % 1018,6 hPa 0,0 l/m W 12,4 km/h (3 Bft)
14.10.2008 17:00 19,0 C 69 % 1018,7 hPa 0,0 l/m W-NW 13,0 km/h (3 Bft)
14.10.2008 18:00 15,5 C 89 % 1018,9 hPa 2,2 l/m W 7,5 km/h (2 Bft)
14.10.2008 19:00 15,2 C 93 % 1019,3 hPa 1,0 l/m W-NW 6,2 km/h (2 Bft)
14.10.2008 20:00 14,8 C 93 % 1019,6 hPa 0,0 l/m N 2,0 km/h (1 Bft)
14.10.2008 21:00 14,2 C 94 % 1019,9 hPa 0,2 l/m N 3,6 km/h (1 Bft)
14.10.2008 22:00 13,9 C 95 % 1020,1 hPa 0,0 l/m N 0,4 km/h (0 Bft)
14.10.2008 23:00 13,9 C 95 % 1019,7 hPa 0,0 l/m N 0,7 km/h (0 Bft)
15.10.2008 00:00 13,8 C 95 % 1019,6 hPa 0,0 l/m N 2,8 km/h (1 Bft)
15.10.2008 01:00 13,6 C 96 % 1019,5 hPa 0,0 l/m N 0,7 km/h (0 Bft)
15.10.2008 02:00 13,6 C 95 % 1019,5 hPa 0,0 l/m N 0,1 km/h (0 Bft)
15.10.2008 03:00 13,4 C 96 % 1019,1 hPa 0,0 l/m N 0,8 km/h (0 Bft)
15.10.2008 04:00 13,2 C 97 % 1019,0 hPa 0,0 l/m SW 2,0 km/h (1 Bft)
15.10.2008 05:00 13,3 C 98 % 1018,9 hPa 0,0 l/m SW 3,9 km/h (1 Bft)
15.10.2008 06:00 13,4 C 97 % 1018,8 hPa 0,0 l/m S-SO 2,4 km/h (1 Bft)
15.10.2008 07:00 13,2 C 97 % 1018,7 hPa 0,0 l/m S-SO 3,3 km/h (1 Bft)
15.10.2008 08:00 13,1 C 97 % 1019,0 hPa 0,0 l/m S-SW 2,9 km/h (1 Bft)
15.10.2008 09:00 13,3 C 98 % 1019,3 hPa 0,0 l/m S-SW 3,7 km/h (1 Bft)
15.10.2008 10:00 14,0 C 96 % 1019,3 hPa 0,0 l/m S-SW 9,7 km/h (2 Bft)
15.10.2008 11:00 15,3 C 93 % 1019,1 hPa 0,0 l/m S-SW 9,9 km/h (2 Bft)
15.10.2008 12:00 16,9 C 84 % 1018,7 hPa 0,0 l/m SW 14,9 km/h (3 Bft)
15.10.2008 13:00 18,1 C 76 % 1017,9 hPa 0,0 l/m S-SW 19,2 km/h (3 Bft)
15.10.2008 14:00 18,8 C 70 % 1017,1 hPa 0,0 l/m W 22,3 km/h (4 Bft)
15.10.2008 15:00 18,8 C 69 % 1016,7 hPa 0,0 l/m SW 19,8 km/h (4 Bft)
15.10.2008 16:00 18,7 C 70 % 1016,1 hPa 0,0 l/m W-SW 15,7 km/h (3 Bft)
15.10.2008 17:00 17,8 C 73 % 1016,1 hPa 0,0 l/m SW 8,3 km/h (2 Bft)
15.10.2008 18:00 16,8 C 76 % 1015,9 hPa 0,0 l/m W 7,0 km/h (2 Bft)
15.10.2008 19:00 15,9 C 79 % 1015,9 hPa 0,0 l/m W 7,4 km/h (2 Bft)
15.10.2008 20:00 15,2 C 83 % 1016,0 hPa 0,0 l/m SW 6,1 km/h (2 Bft)
15.10.2008 21:00 14,5 C 86 % 1015,6 hPa 0,0 l/m S-SW 7,9 km/h (2 Bft)
15.10.2008 22:00 14,2 C 88 % 1015,6 hPa 0,0 l/m SW 8,8 km/h (2 Bft)
15.10.2008 23:00 14,6 C 85 % 1015,3 hPa 0,0 l/m SW 11,7 km/h (2 Bft)
16.10.2008 00:00 14,2 C 85 % 1015,0 hPa 0,0 l/m SW 10,9 km/h (2 Bft)
16.10.2008 01:00 13,9 C 88 % 1014,7 hPa 0,0 l/m SW 12,1 km/h (2 Bft)
16.10.2008 02:00 13,8 C 91 % 1014,7 hPa 0,0 l/m SW 16,0 km/h (3 Bft)
16.10.2008 03:00 14,1 C 88 % 1014,4 hPa 0,0 l/m W 17,0 km/h (3 Bft)
16.10.2008 04:00 14,2 C 85 % 1014,1 hPa 0,0 l/m W 12,8 km/h (3 Bft)
16.10.2008 05:00 13,7 C 87 % 1013,9 hPa 0,0 l/m W-SW 13,8 km/h (3 Bft)
16.10.2008 06:00 13,2 C 89 % 1013,5 hPa 0,0 l/m W 14,6 km/h (3 Bft)
16.10.2008 07:00 12,8 C 91 % 1013,0 hPa 0,0 l/m SW 14,4 km/h (3 Bft)
16.10.2008 08:00 12,6 C 93 % 1012,6 hPa 0,0 l/m SW 13,7 km/h (3 Bft)
16.10.2008 09:00 12,7 C 95 % 1012,5 hPa 0,4 l/m SW 10,8 km/h (2 Bft)
16.10.2008 10:00 12,8 C 96 % 1012,0 hPa 2,0 l/m SW 9,7 km/h (2 Bft)
16.10.2008 11:00 12,8 C 95 % 1011,6 hPa 5,2 l/m W 10,6 km/h (2 Bft)
16.10.2008 12:00 12,5 C 96 % 1011,4 hPa 2,2 l/m W 9,1 km/h (2 Bft)
16.10.2008 13:00 12,9 C 97 % 1010,7 hPa 1,4 l/m SW 16,2 km/h (3 Bft)
16.10.2008 14:00 13,4 C 94 % 1010,2 hPa 0,0 l/m W-SW 21,4 km/h (4 Bft)
16.10.2008 15:00 13,4 C 91 % 1009,5 hPa 0,0 l/m W 20,2 km/h (4 Bft)
16.10.2008 16:00 13,2 C 91 % 1009,4 hPa 2,0 l/m W 22,9 km/h (4 Bft)
16.10.2008 17:00 11,6 C 91 % 1010,1 hPa 1,2 l/m NW 19,7 km/h (3 Bft)
16.10.2008 18:00 10,8 C 93 % 1010,6 hPa 0,0 l/m W 8,2 km/h (2 Bft)
16.10.2008 19:00 10,4 C 93 % 1011,8 hPa 0,0 l/m SW 9,1 km/h (2 Bft)
16.10.2008 20:00 10,1 C 93 % 1013,0 hPa 0,2 l/m W 9,9 km/h (2 Bft)
16.10.2008 21:00 9,1 C 91 % 1014,5 hPa 1,4 l/m N-NW 15,4 km/h (3 Bft)
16.10.2008 22:00 8,0 C 89 % 1015,2 hPa 0,0 l/m NW 14,9 km/h (3 Bft)
16.10.2008 23:00 7,6 C 89 % 1015,7 hPa 0,0 l/m W-NW 7,6 km/h (2 Bft)
17.10.2008 00:00 7,4 C 90 % 1016,1 hPa 0,0 l/m W-NW 4,1 km/h (1 Bft)
17.10.2008 01:00 7,4 C 93 % 1016,6 hPa 0,2 l/m SW 2,3 km/h (1 Bft)
17.10.2008 02:00 7,2 C 95 % 1017,1 hPa 0,0 l/m SW 3,2 km/h (1 Bft)
17.10.2008 03:00 7,1 C 94 % 1017,1 hPa 0,0 l/m SW 2,5 km/h (1 Bft)
17.10.2008 04:00 6,3 C 93 % 1017,3 hPa 0,0 l/m N 0,5 km/h (0 Bft)
17.10.2008 05:00 5,2 C 93 % 1017,7 hPa 0,0 l/m N 0,0 km/h (0 Bft)
17.10.2008 06:00 4,4 C 95 % 1017,9 hPa 0,0 l/m N 0,0 km/h (0 Bft)
17.10.2008 07:00 3,7 C 95 % 1018,2 hPa 0,0 l/m N 0,0 km/h (0 Bft)
17.10.2008 08:00 3,1 C 95 % 1018,8 hPa 0,0 l/m N 0,0 km/h (0 Bft)
17.10.2008 09:00 3,9 C 98 % 1019,4 hPa 0,0 l/m W-SW 1,7 km/h (1 Bft)
17.10.2008 10:00 5,8 C 96 % 1019,8 hPa 0,0 l/m W-NW 5,5 km/h (1 Bft)
17.10.2008 11:00 7,7 C 80 % 1020,0 hPa 0,0 l/m W-NW 10,8 km/h (2 Bft)
17.10.2008 12:00 9,2 C 68 % 1020,0 hPa 0,0 l/m N-NO 11,4 km/h (2 Bft)
17.10.2008 13:00 9,2 C 65 % 1019,7 hPa 0,0 l/m N 9,0 km/h (2 Bft)
17.10.2008 14:00 10,2 C 60 % 1019,4 hPa 0,0 l/m N 10,1 km/h (2 Bft)
17.10.2008 15:00 10,3 C 55 % 1019,3 hPa 0,0 l/m N-NW 6,4 km/h (2 Bft)
17.10.2008 16:00 10,2 C 55 % 1019,3 hPa 0,0 l/m N 6,7 km/h (2 Bft)
17.10.2008 17:00 9,8 C 58 % 1019,5 hPa 0,0 l/m N-NW 3,9 km/h (1 Bft)
17.10.2008 18:00 8,9 C 67 % 1019,8 hPa 0,0 l/m N-NO 2,7 km/h (1 Bft)
17.10.2008 19:00 6,9 C 77 % 1020,6 hPa 0,0 l/m N 0,0 km/h (0 Bft)
17.10.2008 20:00 5,4 C 83 % 1020,9 hPa 0,0 l/m N 0,1 km/h (0 Bft)
17.10.2008 21:00 4,3 C 88 % 1021,0 hPa 0,0 l/m N 0,8 km/h (0 Bft)
17.10.2008 22:00 3,6 C 90 % 1021,1 hPa 0,0 l/m N 0,5 km/h (0 Bft)
17.10.2008 23:00 3,1 C 92 % 1020,9 hPa 0,0 l/m N 2,3 km/h (1 Bft)
18.10.2008 00:00 2,8 C 93 % 1020,7 hPa 0,2 l/m N-NW 4,0 km/h (1 Bft)
18.10.2008 01:00 2,7 C 93 % 1020,4 hPa 0,0 l/m NW 2,8 km/h (1 Bft)
18.10.2008 02:00 2,3 C 93 % 1020,4 hPa 0,0 l/m N-NW 4,7 km/h (1 Bft)
18.10.2008 03:00 2,2 C 93 % 1020,2 hPa 0,0 l/m N-NW 4,1 km/h (1 Bft)
18.10.2008 04:00 1,8 C 94 % 1020,2 hPa 0,0 l/m N-NW 5,1 km/h (1 Bft)
18.10.2008 05:00 1,6 C 94 % 1020,0 hPa 0,0 l/m N-NW 3,9 km/h (1 Bft)
18.10.2008 06:00 1,3 C 94 % 1019,8 hPa 0,0 l/m N-NW 4,5 km/h (1 Bft)
18.10.2008 07:00 1,0 C 94 % 1019,7 hPa 0,0 l/m N 3,7 km/h (1 Bft)
18.10.2008 08:00 1,0 C 96 % 1019,8 hPa 0,0 l/m N-NW 5,1 km/h (1 Bft)
18.10.2008 09:00 2,2 C 95 % 1020,1 hPa 0,0 l/m N 6,5 km/h (2 Bft)
18.10.2008 10:00 4,4 C 88 % 1020,1 hPa 0,0 l/m NO 9,0 km/h (2 Bft)
18.10.2008 11:00 6,1 C 83 % 1020,1 hPa 0,0 l/m NO 6,0 km/h (2 Bft)
18.10.2008 12:00 8,1 C 78 % 1019,9 hPa 0,0 l/m O-SO 6,3 km/h (2 Bft)
18.10.2008 13:00 10,1 C 69 % 1019,5 hPa 0,0 l/m SO 5,6 km/h (1 Bft)
18.10.2008 14:00 11,6 C 65 % 1019,3 hPa 0,0 l/m O-SO 6,5 km/h (2 Bft)
18.10.2008 15:00 12,0 C 63 % 1019,0 hPa 0,0 l/m SW 8,6 km/h (2 Bft)
18.10.2008 16:00 11,8 C 68 % 1019,0 hPa 0,0 l/m S-SW 9,9 km/h (2 Bft)
18.10.2008 17:00 11,0 C 73 % 1019,2 hPa 0,0 l/m SW 10,9 km/h (2 Bft)
18.10.2008 18:00 9,9 C 76 % 1019,7 hPa 0,0 l/m SW 4,1 km/h (1 Bft)
18.10.2008 19:00 8,4 C 81 % 1020,5 hPa 0,0 l/m N 0,9 km/h (0 Bft)
18.10.2008 20:00 6,9 C 86 % 1021,1 hPa 0,0 l/m N 0,7 km/h (0 Bft)
18.10.2008 21:00 5,8 C 89 % 1021,6 hPa 0,0 l/m N 0,0 km/h (0 Bft)
18.10.2008 22:00 5,0 C 91 % 1022,0 hPa 0,0 l/m N 0,3 km/h (0 Bft)
18.10.2008 23:00 4,5 C 92 % 1022,3 hPa 0,0 l/m N 0,1 km/h (0 Bft)
19.10.2008 00:00 4,1 C 93 % 1022,5 hPa 0,0 l/m N 0,7 km/h (0 Bft)
19.10.2008 01:00 3,8 C 94 % 1022,9 hPa 0,0 l/m N 0,5 km/h (0 Bft)
19.10.2008 02:00 3,9 C 96 % 1023,3 hPa 0,0 l/m N 0,0 km/h (0 Bft)
19.10.2008 03:00 4,1 C 96 % 1023,4 hPa 0,0 l/m SW 1,3 km/h (1 Bft)
19.10.2008 04:00 4,3 C 97 % 1023,5 hPa 0,0 l/m N 0,8 km/h (0 Bft)
19.10.2008 05:00 4,7 C 97 % 1023,6 hPa 0,0 l/m N 0,0 km/h (0 Bft)
19.10.2008 06:00 4,8 C 97 % 1023,5 hPa 0,0 l/m N 0,1 km/h (0 Bft)
19.10.2008 07:00 4,8 C 96 % 1023,6 hPa 0,0 l/m N 1,1 km/h (0 Bft)
19.10.2008 08:00 4,7 C 95 % 1024,4 hPa 0,0 l/m N 4,3 km/h (1 Bft)
19.10.2008 09:00 5,2 C 93 % 1025,0 hPa 0,0 l/m N-NO 5,5 km/h (1 Bft)
19.10.2008 10:00 7,6 C 82 % 1025,0 hPa 0,0 l/m N-NO 2,9 km/h (1 Bft)
19.10.2008 11:00 10,3 C 71 % 1025,0 hPa 0,0 l/m O-NO 4,5 km/h (1 Bft)
19.10.2008 12:00 12,2 C 65 % 1024,8 hPa 0,0 l/m O-SO 5,7 km/h (1 Bft)
19.10.2008 13:00 13,7 C 63 % 1024,0 hPa 0,0 l/m O-SO 8,7 km/h (2 Bft)
19.10.2008 14:00 14,7 C 61 % 1023,4 hPa 0,0 l/m W 10,2 km/h (2 Bft)
19.10.2008 15:00 15,2 C 58 % 1022,8 hPa 0,0 l/m W-SW 11,8 km/h (2 Bft)
19.10.2008 16:00 15,1 C 51 % 1022,6 hPa 0,0 l/m W 13,0 km/h (3 Bft)
19.10.2008 17:00 14,1 C 57 % 1022,4 hPa 0,0 l/m W-SW 5,3 km/h (1 Bft)
19.10.2008 18:00 12,2 C 67 % 1022,6 hPa 0,0 l/m W 3,2 km/h (1 Bft)
19.10.2008 19:00 10,1 C 75 % 1022,9 hPa 0,0 l/m N 0,1 km/h (0 Bft)
19.10.2008 20:00 8,4 C 82 % 1022,9 hPa 0,0 l/m N 1,1 km/h (0 Bft)
19.10.2008 21:00 7,1 C 86 % 1023,1 hPa 0,0 l/m N 0,3 km/h (0 Bft)
19.10.2008 22:00 6,1 C 89 % 1023,2 hPa 0,0 l/m N 0,0 km/h (0 Bft)
19.10.2008 23:00 5,3 C 90 % 1023,3 hPa 0,0 l/m N 0,0 km/h (0 Bft)
Min-Datum _ 18.10.08 19.10.08 16.10.08 - - 13.10.08
_ Min-Zeit 08:05 16:35 16:25 - - 00:00
Minimum _ 0,8 C 48 % 1009,1 hPa - - 0,0 km/h (0 Bft)
Max-Datum _ 14.10.08 13.10.08 13.10.08 16.10.08 - 16.10.08
_ Max-Zeit 14:25 09:55 00:05 11:10 - 16:20
Maximum _ 20,9 C 99 % 1025,8 hPa 5,2 l/m - 33,8 km/h
W-NW (5 Bft)
Durchschnitt _ 10,5 C 86 % 1019,5 hPa #19,8 l/m SW 6,2 km/h (2 Bft)